• Join FlightAware (Why Join?)
  • Login
  • US Flag 
11:21AM EDT


 

Airport Tracker/Info


-or-


 

Live Flight TrackerFlight Track Log ✈ PDT4226 ✈ 17-Oct-2013 ✈ KBGM - KPHL

Flight Track Log - Related Links

Times and Time Zones

All times are in EDT time to prevent confusion due to time zone crossing. See the PDT4226 flight status page for this flight to view local times or setup timezone preferences in your user account.

Time Position Orientation Groundspeed Altitude Reporting Facility
EDT Latitude Longitude Course Direction KTS MPH feet Rate Location/Type
02:16PM 42.0464 -75.9266 180° South  Level Estimated
02:17PM 41.9908 -75.9279 181° South  Level FlightAware Approximate
02:18PM 41.9353 -75.9291 181° South  Level FlightAware Approximate
02:19PM 41.8814 -75.9106 154° Southeast  Level Estimated
02:20PM 41.8276 -75.8921 160° South  Level Estimated
02:21PM 41.7723 -75.8848 174° South  Level FlightAware Approximate
02:22PM 41.7185 -75.8661 159° South  Level Estimated
02:23PM 41.6642 -75.8496 167° South  Level FlightAware Approximate
02:24PM 41.6105 -75.8308 153° Southeast  Level Estimated
02:25PM 41.5567 -75.8121 161° South  Level Estimated
02:26PM 41.5040 -75.7886 162° South  Level FlightAware Approximate
02:27PM 41.4512 -75.7652 162° South  Level FlightAware Approximate
02:28PM 41.3985 -75.7417 162° South  Level FlightAware Approximate
02:29PM 41.3446 -75.7236 162° South  Level Estimated
02:30PM 41.2920 -75.6996 161° South  Level FlightAware Approximate
02:31PM 41.2395 -75.6756 161° South  Level FlightAware Approximate
02:32PM 41.1869 -75.6516 161° South  Level FlightAware Approximate
02:33PM 41.1343 -75.6276 161° South  Level FlightAware Approximate
02:34PM 41.0802 -75.6107 163° South  Level Estimated
02:35PM 41.0275 -75.5873 161° South  Level FlightAware Approximate
02:36PM 40.9748 -75.5639 161° South  Level FlightAware Approximate
02:37PM 40.9221 -75.5406 161° South  Level FlightAware Approximate
02:38PM 40.8694 -75.5173 162° South  Level FlightAware Approximate
02:39PM 40.8150 -75.5020 190° South  Level Estimated
02:40PM 40.7594 -75.5016 180° South  Level FlightAware Approximate
02:41PM 40.7039 -75.5013 180° South  Level FlightAware Approximate
02:42PM 40.6483 -75.5009 180° South  Level FlightAware Approximate
02:42PM 40.5500 -75.6333 180° South 246 283 5,200  Level Philadelphia TRACON
02:42PM 40.5500 -75.6333 180° South 246 283 5,100 -240 Descending Philadelphia TRACON
02:43PM 40.5945 -75.4827 187° South  Level Estimated
02:43PM 40.4833 -75.6167 169° South 239 275 5,000  Level Philadelphia TRACON
02:44PM 40.5394 -75.4923 188° South  Level FlightAware Approximate
02:44PM 40.4167 -75.5833 159° South 230 265 5,000  Level Philadelphia TRACON
02:45PM 40.4860 -75.4720 190° South  Level Estimated
02:45PM 40.3667 -75.5167 135° Southeast 229 264 4,500  Level Philadelphia TRACON
02:46PM 40.4238 -75.4926 194° South  Level FlightAware Approximate
02:46PM 40.3167 -75.4667 143° Southeast 219 252 3,500  Level Philadelphia TRACON
02:47PM 40.3633 -75.4648 180° South  Level Estimated
02:47PM 40.2667 -75.4333 153° Southeast 211 243 3,000  Level Philadelphia TRACON
02:48PM 40.2167 -75.4000 153° Southeast 205 236 3,000  Level Philadelphia TRACON
02:49PM 40.1667 -75.3833 166° South 201 231 3,000  Level Philadelphia TRACON
02:50PM 40.1167 -75.3500 153° Southeast 200 230 3,000  Level Philadelphia TRACON
02:51PM 40.0667 -75.3333 166° South 206 237 3,000 -300 Level Philadelphia TRACON
02:52PM 40.0167 -75.3000 153° Southeast 196 226 2,500 -720 Descending Philadelphia TRACON
02:53PM 39.9667 -75.2833 166° South 161 185 1,600 -840 Descending Philadelphia TRACON
02:54PM 39.9333 -75.2500 143° Southeast 140 161 900 -720 Descending Philadelphia TRACON
02:55PM 39.9000 -75.2500 180° South 109 125 200 -720 Descending Philadelphia TRACON